Airport View

Enter AWOS ICAO identifier for current METAR.

ex. KFNL

KMKT 212256Z AUTO 20011G16KT 10SM FEW047 27/22 A2977 RMK AO2 SLP075 T02670222

21 Sep 2019 23:25

Frequency: 118.175

Phone: 507-625-3726

Other Area AWOS: KACQ - KULM - KFBL - KOWA

TAF AMD KMKT 212150Z 2122/2218 22010G19KT P6SM SCT030 BKN050 FM220400 27007KT P6SM FEW250 FM221400 32008KT P6SM FEW030 BKN100